createdAt,value
2019-03-22T00:00:29.073Z,10.48
2019-03-22T00:03:38.093Z,9.83
2019-03-22T00:06:45.903Z,10.75
2019-03-22T00:09:53.551Z,10.50
2019-03-22T00:13:01.317Z,7.55
2019-03-22T00:16:08.959Z,8.78
2019-03-22T00:19:16.759Z,9.40
2019-03-22T00:22:24.415Z,9.05
2019-03-22T00:25:36.117Z,9.68
2019-03-22T00:28:46.125Z,9.18
2019-03-22T00:31:53.804Z,7.53
2019-03-22T00:35:01.369Z,10.55
2019-03-22T00:38:09.120Z,8.10
2019-03-22T00:41:16.672Z,8.05
2019-03-22T00:44:24.363Z,9.93
2019-03-22T00:47:32.057Z,7.22
2019-03-22T00:50:39.954Z,7.72
2019-03-22T00:53:47.587Z,9.15
2019-03-22T00:56:57.959Z,11.25
2019-03-22T01:00:06.925Z,6.53
2019-03-22T01:03:14.781Z,7.95
2019-03-22T01:06:24.052Z,8.03
2019-03-22T01:09:31.803Z,6.62
2019-03-22T01:12:39.580Z,8.40
2019-03-22T01:15:47.302Z,8.75
2019-03-22T01:18:55.098Z,9.00
2019-03-22T01:22:02.911Z,8.25
2019-03-22T01:25:12.621Z,8.28
2019-03-22T01:28:24.347Z,9.40
2019-03-22T01:31:33.763Z,7.15
2019-03-22T01:34:41.598Z,8.33
2019-03-22T01:37:49.368Z,6.62
2019-03-22T01:40:57.194Z,10.03
2019-03-22T01:44:05.376Z,9.00
2019-03-22T01:47:13.068Z,8.75
2019-03-22T01:50:21.014Z,10.65
2019-03-22T01:53:29.639Z,9.40
2019-03-22T01:56:37.276Z,7.45
2019-03-22T01:59:45.047Z,9.73
2019-03-22T02:02:52.689Z,7.20
2019-03-22T02:06:03.613Z,9.85
2019-03-22T02:09:11.335Z,9.43
2019-03-22T02:12:19.233Z,9.58
2019-03-22T02:15:26.802Z,9.60
2019-03-22T02:18:34.732Z,5.30
2019-03-22T02:21:44.482Z,8.88
2019-03-22T02:24:52.363Z,7.75
2019-03-22T02:28:04.327Z,8.65
2019-03-22T02:31:09.875Z,8.83
2019-03-22T02:34:17.797Z,8.30
2019-03-22T02:37:25.587Z,9.08
2019-03-22T02:40:33.343Z,7.90
2019-03-22T02:43:41.037Z,11.63
2019-03-22T02:46:48.697Z,9.30
2019-03-22T02:49:56.526Z,9.03
2019-03-22T02:53:04.119Z,7.60
2019-03-22T02:56:12.838Z,8.13
2019-03-22T02:59:20.708Z,7.35
2019-03-22T03:02:28.713Z,6.58
2019-03-22T03:05:36.589Z,7.78
2019-03-22T03:08:44.370Z,10.23
2019-03-22T03:11:52.374Z,7.60
2019-03-22T03:15:00.417Z,11.85
2019-03-22T03:18:08.233Z,7.47
2019-03-22T03:21:15.953Z,8.70
2019-03-22T03:24:23.622Z,9.15
2019-03-22T03:27:31.320Z,10.18
2019-03-22T03:30:39.014Z,7.83
2019-03-22T03:33:50.151Z,9.55
2019-03-22T03:36:57.892Z,6.65
2019-03-22T03:40:07.082Z,7.20
2019-03-22T03:43:14.806Z,7.75
2019-03-22T03:46:22.522Z,7.80
2019-03-22T03:49:30.342Z,8.45
2019-03-22T03:52:41.110Z,9.43
2019-03-22T03:55:55.003Z,8.03
2019-03-22T03:59:02.982Z,7.62
2019-03-22T04:02:10.678Z,9.13
2019-03-22T04:05:18.365Z,8.53
2019-03-22T04:08:26.005Z,7.58
2019-03-22T04:11:33.706Z,8.53
2019-03-22T04:14:41.439Z,7.30
2019-03-22T04:17:51.932Z,7.10
2019-03-22T04:21:00.174Z,8.18
2019-03-22T04:24:07.867Z,8.68
2019-03-22T04:27:15.547Z,7.50
2019-03-22T04:30:23.209Z,8.00
2019-03-22T04:33:30.853Z,7.50
2019-03-22T04:36:41.471Z,7.35
2019-03-22T04:39:50.966Z,7.00
2019-03-22T04:42:58.935Z,7.80
2019-03-22T04:46:08.458Z,8.33
2019-03-22T04:49:18.620Z,9.18
2019-03-22T04:52:27.555Z,8.40
2019-03-22T04:55:36.298Z,9.80
2019-03-22T04:58:46.993Z,7.65
2019-03-22T05:01:58.648Z,10.28
2019-03-22T05:05:07.623Z,8.30
2019-03-22T05:08:16.516Z,9.38
2019-03-22T05:11:25.883Z,10.13
2019-03-22T05:14:36.286Z,7.17
2019-03-22T05:17:44.260Z,7.97
2019-03-22T05:20:55.610Z,10.15
2019-03-22T05:24:05.336Z,7.60
2019-03-22T05:27:21.650Z,8.20
2019-03-22T05:31:17.196Z,10.40
2019-03-22T05:34:26.018Z,11.18
2019-03-22T05:37:33.647Z,8.45
2019-03-22T05:40:41.436Z,7.40
2019-03-22T05:43:50.538Z,7.78
2019-03-22T05:46:58.262Z,11.75
2019-03-22T05:50:06.284Z,7.65
2019-03-22T05:53:13.993Z,7.20
2019-03-22T05:56:21.626Z,6.67
2019-03-22T05:59:29.344Z,7.65
2019-03-22T06:02:37.398Z,9.28
2019-03-22T06:05:47.472Z,7.53
2019-03-22T06:08:55.132Z,7.20
2019-03-22T06:12:02.784Z,8.03
2019-03-22T06:15:10.558Z,11.43
2019-03-22T06:18:19.314Z,7.30
2019-03-22T06:21:26.898Z,7.47
2019-03-22T06:24:34.580Z,7.65
2019-03-22T06:27:44.088Z,8.75
2019-03-22T06:30:51.781Z,7.08
2019-03-22T06:33:59.638Z,7.95
2019-03-22T06:37:07.536Z,8.20
2019-03-22T06:40:15.244Z,8.13
2019-03-22T06:43:23.065Z,6.53
2019-03-22T06:46:30.771Z,7.97
2019-03-22T06:49:38.557Z,8.78
2019-03-22T06:52:46.173Z,9.18
2019-03-22T06:55:53.859Z,8.45
2019-03-22T06:59:01.495Z,8.80
2019-03-22T07:02:09.232Z,9.35
2019-03-22T07:05:17.115Z,8.08
2019-03-22T07:08:25.012Z,9.33
2019-03-22T07:11:32.589Z,7.70
2019-03-22T07:14:40.358Z,8.88
2019-03-22T07:17:49.287Z,8.95
2019-03-22T07:20:56.974Z,9.40
2019-03-22T07:24:04.669Z,9.65
2019-03-22T07:27:12.374Z,8.25
2019-03-22T07:30:21.210Z,8.10
2019-03-22T07:33:28.907Z,8.40
2019-03-22T07:36:36.536Z,10.23
2019-03-22T07:39:47.515Z,6.25
2019-03-22T07:42:56.521Z,9.03
2019-03-22T07:46:04.253Z,10.90
2019-03-22T07:49:11.915Z,8.80
2019-03-22T07:52:19.719Z,11.05
2019-03-22T07:55:27.404Z,8.70
2019-03-22T07:58:35.084Z,10.88
2019-03-22T08:01:43.926Z,8.00
2019-03-22T08:04:53.249Z,6.78
2019-03-22T08:08:01.210Z,8.33
2019-03-22T08:11:09.832Z,8.65
2019-03-22T08:14:17.619Z,8.53
2019-03-22T08:17:25.455Z,7.72
2019-03-22T08:20:33.196Z,8.63
2019-03-22T08:23:42.377Z,13.38
2019-03-22T08:26:50.077Z,10.88
2019-03-22T08:29:57.855Z,10.70
2019-03-22T08:33:05.608Z,11.05
2019-03-22T08:36:14.969Z,12.88
2019-03-22T08:39:22.824Z,11.30
2019-03-22T08:42:30.519Z,12.40
2019-03-22T08:45:38.282Z,10.70
2019-03-22T08:48:46.124Z,10.58
2019-03-22T08:51:53.897Z,13.22
2019-03-22T08:55:01.815Z,11.90
2019-03-22T08:58:09.852Z,10.63
2019-03-22T09:01:18.201Z,11.43
2019-03-22T09:04:26.094Z,10.75
2019-03-22T09:07:33.956Z,12.95
2019-03-22T09:10:56.856Z,13.98
2019-03-22T09:14:05.765Z,10.05
2019-03-22T09:17:13.599Z,15.08
2019-03-22T09:20:21.708Z,16.20
2019-03-22T09:23:30.156Z,17.25
2019-03-22T09:26:47.173Z,14.75
2019-03-22T09:29:48.070Z,15.00
2019-03-22T09:32:55.908Z,12.47
2019-03-22T09:36:03.551Z,13.10
2019-03-22T09:39:13.758Z,14.05
2019-03-22T09:42:21.470Z,12.80
2019-03-22T09:45:29.221Z,14.38
2019-03-22T09:48:36.970Z,14.95
2019-03-22T09:51:46.387Z,14.93
2019-03-22T09:54:54.135Z,13.50
2019-03-22T09:58:02.035Z,14.53
2019-03-22T10:01:22.888Z,16.70
2019-03-22T10:04:19.317Z,17.80
2019-03-22T10:07:27.294Z,14.73
2019-03-22T10:10:35.080Z,15.25
2019-03-22T10:13:48.432Z,15.70
2019-03-22T10:16:56.474Z,11.85
2019-03-22T10:20:04.953Z,14.10
2019-03-22T10:23:12.706Z,12.53
2019-03-22T10:26:20.559Z,15.30
2019-03-22T10:29:28.310Z,13.58
2019-03-22T10:32:36.051Z,12.20
2019-03-22T10:35:43.916Z,13.25
2019-03-22T10:38:53.330Z,14.80
2019-03-22T10:42:01.146Z,12.80
2019-03-22T10:45:09.286Z,15.32
2019-03-22T10:48:17.029Z,13.35
2019-03-22T10:51:24.812Z,14.47
2019-03-22T10:54:32.554Z,12.30
2019-03-22T10:57:40.640Z,13.95
2019-03-22T11:00:48.653Z,16.32
2019-03-22T11:03:56.477Z,12.35
2019-03-22T11:07:04.452Z,13.45
2019-03-22T11:10:16.450Z,12.07
2019-03-22T11:13:24.256Z,13.28
2019-03-22T11:16:33.165Z,10.35
2019-03-22T11:19:42.482Z,11.70
2019-03-22T11:22:50.153Z,8.80
2019-03-22T11:26:04.169Z,10.72
2019-03-22T11:29:07.327Z,8.58
2019-03-22T11:32:15.478Z,13.48
2019-03-22T11:35:23.256Z,8.33
2019-03-22T11:38:31.502Z,8.20
2019-03-22T11:41:39.172Z,10.35
2019-03-22T11:44:49.685Z,9.50
2019-03-22T11:47:57.403Z,10.40
2019-03-22T11:51:05.627Z,8.35
2019-03-22T11:54:13.431Z,9.63
2019-03-22T11:57:21.154Z,8.85
2019-03-22T12:00:30.271Z,9.93
2019-03-22T12:03:37.896Z,9.53
2019-03-22T12:06:45.636Z,11.00
2019-03-22T12:09:53.477Z,9.75
2019-03-22T12:13:02.139Z,7.70
2019-03-22T12:16:09.839Z,9.93
2019-03-22T12:19:19.462Z,9.90
2019-03-22T12:22:27.969Z,7.97
2019-03-22T12:25:45.571Z,11.28
2019-03-22T12:28:53.640Z,10.98
2019-03-22T12:32:01.295Z,11.25
2019-03-22T12:35:10.661Z,12.37
2019-03-22T12:38:18.357Z,12.33
2019-03-22T12:41:26.103Z,11.60
2019-03-22T12:44:33.818Z,12.30
2019-03-22T12:47:41.538Z,11.80
2019-03-22T12:50:49.134Z,10.08
2019-03-22T12:53:57.010Z,22.65
2019-03-22T12:57:04.781Z,11.75
2019-03-22T13:00:16.974Z,11.95
2019-03-22T13:03:24.848Z,11.60
2019-03-22T13:06:33.105Z,10.15
2019-03-22T13:09:40.809Z,12.07
2019-03-22T13:12:48.528Z,13.40
2019-03-22T13:15:56.291Z,16.25
2019-03-22T13:19:06.405Z,14.55
2019-03-22T13:22:15.566Z,12.68
2019-03-22T13:25:23.287Z,15.25
2019-03-22T13:28:32.643Z,12.70
2019-03-22T13:31:40.466Z,15.32
2019-03-22T13:34:48.155Z,12.53
2019-03-22T13:37:56.016Z,14.53
2019-03-22T13:41:03.973Z,12.13
2019-03-22T13:44:12.150Z,11.68
2019-03-22T13:47:20.769Z,15.08
2019-03-22T13:50:31.775Z,12.63
2019-03-22T13:53:39.601Z,14.03
2019-03-22T13:56:48.112Z,14.73
2019-03-22T13:59:56.582Z,13.30
2019-03-22T14:03:04.721Z,10.68
2019-03-22T14:06:12.755Z,15.40
2019-03-22T14:09:23.985Z,9.78
2019-03-22T14:12:36.960Z,11.20
2019-03-22T14:15:41.450Z,8.83
2019-03-22T14:18:49.459Z,13.93
2019-03-22T14:21:57.332Z,3.10
2019-03-22T14:25:05.711Z,2.95
2019-03-22T14:28:13.409Z,2.40
2019-03-22T14:31:21.044Z,2.23
2019-03-22T14:34:30.195Z,2.00
2019-03-22T14:37:39.583Z,2.63
2019-03-22T14:40:46.950Z,2.13
2019-03-22T14:43:54.372Z,2.30
2019-03-22T14:47:05.345Z,3.20
2019-03-22T14:50:13.037Z,3.27
2019-03-22T14:53:22.511Z,2.70
2019-03-22T14:56:30.151Z,3.10
2019-03-22T14:59:37.517Z,2.67
2019-03-22T15:02:47.026Z,2.20
2019-03-22T15:05:56.346Z,2.57
2019-03-22T15:09:05.322Z,2.57
2019-03-22T15:12:12.831Z,2.10
2019-03-22T15:15:39.525Z,2.57
2019-03-22T15:19:05.816Z,1.83
2019-03-22T15:22:33.865Z,2.57
2019-03-22T15:26:00.790Z,2.10
2019-03-22T15:29:27.373Z,2.20
2019-03-22T15:33:05.802Z,1.87
2019-03-22T15:36:30.981Z,2.10
2019-03-22T15:40:06.852Z,2.30
2019-03-22T15:43:15.608Z,1.73
2019-03-22T15:46:34.799Z,2.63
2019-03-22T15:49:42.524Z,2.20
2019-03-22T15:52:54.465Z,2.13
2019-03-22T15:56:02.440Z,2.12
2019-03-22T15:59:11.465Z,2.70
2019-03-22T16:02:22.043Z,3.00
2019-03-22T16:05:32.928Z,3.20
2019-03-22T16:08:40.805Z,2.40
2019-03-22T16:11:48.645Z,3.08
2019-03-22T16:14:58.016Z,2.60
2019-03-22T16:18:06.158Z,2.72
2019-03-22T16:21:14.737Z,2.40
2019-03-22T16:24:22.865Z,2.70
2019-03-22T16:27:31.594Z,2.58
2019-03-22T16:30:41.121Z,3.55
2019-03-22T16:33:59.050Z,4.42
2019-03-22T16:37:09.515Z,3.65
2019-03-22T16:40:24.189Z,3.47
2019-03-22T16:43:27.028Z,2.52
2019-03-22T16:46:36.155Z,4.33
2019-03-22T16:49:43.878Z,3.20
2019-03-22T16:52:51.950Z,2.47
2019-03-22T16:55:59.710Z,2.05
2019-03-22T16:59:07.385Z,2.90
2019-03-22T17:02:17.149Z,2.60
2019-03-22T17:05:25.592Z,3.12
2019-03-22T17:08:35.002Z,2.67
2019-03-22T17:11:47.848Z,2.22
2019-03-22T17:15:01.571Z,2.37
2019-03-22T17:18:11.197Z,3.37
2019-03-22T17:21:23.851Z,3.40
2019-03-22T17:24:31.918Z,3.55
2019-03-22T17:27:42.870Z,2.60
2019-03-22T17:30:50.968Z,3.50
2019-03-22T17:34:00.199Z,3.10
2019-03-22T17:37:08.194Z,3.33
2019-03-22T17:40:16.181Z,2.98
2019-03-22T17:43:26.710Z,3.42
2019-03-22T17:46:36.491Z,3.42
2019-03-22T17:49:48.489Z,6.95
2019-03-22T17:52:56.514Z,4.37
2019-03-22T17:56:04.198Z,4.42
2019-03-22T17:59:12.170Z,5.53
2019-03-22T18:02:20.049Z,6.90
2019-03-22T18:05:28.454Z,7.53
2019-03-22T18:08:37.348Z,7.42
2019-03-22T18:11:45.506Z,14.43
2019-03-22T18:14:53.331Z,14.98
2019-03-22T18:18:01.097Z,11.88
2019-03-22T18:21:08.927Z,10.45
2019-03-22T18:24:16.803Z,12.00
2019-03-22T18:27:24.558Z,8.80
2019-03-22T18:30:33.480Z,7.90
2019-03-22T18:33:41.279Z,7.05
2019-03-22T18:36:49.196Z,6.65
2019-03-22T18:39:56.927Z,7.67
2019-03-22T18:43:04.962Z,7.65
2019-03-22T18:46:15.555Z,9.40
2019-03-22T18:49:25.019Z,11.93
2019-03-22T18:52:34.065Z,6.05
2019-03-22T18:55:42.175Z,6.90
2019-03-22T18:58:49.936Z,6.47
2019-03-22T19:01:57.810Z,6.75
2019-03-22T19:05:07.891Z,7.28
2019-03-22T19:08:16.186Z,6.20
2019-03-22T19:11:25.820Z,9.80
2019-03-22T19:14:33.704Z,8.08
2019-03-22T19:17:42.595Z,7.37
2019-03-22T19:20:50.576Z,8.10
2019-03-22T19:23:58.385Z,8.00
2019-03-22T19:27:06.153Z,8.25
2019-03-22T19:30:16.483Z,7.45
2019-03-22T19:33:24.944Z,8.15
2019-03-22T19:36:32.936Z,8.38
2019-03-22T19:39:43.878Z,10.98
2019-03-22T19:42:51.624Z,15.72
2019-03-22T19:45:59.371Z,14.50
2019-03-22T19:49:07.118Z,12.28
2019-03-22T19:52:16.176Z,11.95
2019-03-22T19:55:24.064Z,13.72
2019-03-22T19:58:31.833Z,13.40
2019-03-22T20:01:39.729Z,10.40
2019-03-22T20:04:47.670Z,16.02
2019-03-22T20:07:55.350Z,12.10
2019-03-22T20:11:03.113Z,12.80
2019-03-22T20:14:10.804Z,10.08
2019-03-22T20:17:18.820Z,8.13
2019-03-22T20:20:26.905Z,10.03
2019-03-22T20:23:34.619Z,11.40
2019-03-22T20:26:42.413Z,12.53
2019-03-22T20:29:50.339Z,10.85
2019-03-22T20:32:58.111Z,9.28
2019-03-22T20:39:09.325Z,9.70
2019-03-22T20:42:17.477Z,9.38
2019-03-22T20:45:25.404Z,10.45
2019-03-22T20:48:33.107Z,11.08
2019-03-22T20:51:42.256Z,11.25
2019-03-22T20:54:49.919Z,10.30
2019-03-22T20:57:57.745Z,12.03
2019-03-22T21:01:05.854Z,12.23
2019-03-22T21:04:13.553Z,9.03
2019-03-22T21:07:21.284Z,9.95
2019-03-22T21:10:30.022Z,11.50
2019-03-22T21:13:37.886Z,14.15
2019-03-22T21:16:45.593Z,15.78
2019-03-22T21:19:58.507Z,11.25
2019-03-22T21:23:07.234Z,13.28
2019-03-22T21:26:15.034Z,12.33
2019-03-22T21:29:22.862Z,10.48
2019-03-22T21:32:30.449Z,9.50
2019-03-22T21:35:38.470Z,9.43
2019-03-22T21:38:46.133Z,11.78
2019-03-22T21:41:54.942Z,10.60
2019-03-22T21:45:02.614Z,11.08
2019-03-22T21:48:10.368Z,11.73
2019-03-22T21:51:18.070Z,11.25
2019-03-22T21:54:26.259Z,13.48
2019-03-22T21:57:33.914Z,11.20
2019-03-22T22:00:41.745Z,10.18
2019-03-22T22:03:49.465Z,14.03
2019-03-22T22:06:57.279Z,12.70
2019-03-22T22:10:05.335Z,11.68
2019-03-22T22:13:14.094Z,10.60
2019-03-22T22:16:23.038Z,12.65
2019-03-22T22:19:30.722Z,10.90
2019-03-22T22:22:38.666Z,12.10
2019-03-22T22:25:46.291Z,10.58
2019-03-22T22:28:53.947Z,14.15
2019-03-22T22:32:01.651Z,12.98
2019-03-22T22:35:09.690Z,14.20
2019-03-22T22:38:17.474Z,12.75
2019-03-22T22:41:25.277Z,14.35
2019-03-22T22:44:33.318Z,10.98
2019-03-22T22:47:41.019Z,11.20
2019-03-22T22:50:48.694Z,12.40
2019-03-22T22:53:56.485Z,10.93
2019-03-22T22:57:04.207Z,13.90
2019-03-22T23:00:17.023Z,11.57
2019-03-22T23:03:26.355Z,11.43
2019-03-22T23:06:33.929Z,11.08
2019-03-22T23:09:41.879Z,12.00
2019-03-22T23:12:49.581Z,10.40
2019-03-22T23:15:57.406Z,10.60
2019-03-22T23:19:05.060Z,10.75
2019-03-22T23:22:13.216Z,10.32
2019-03-22T23:25:21.876Z,11.50
2019-03-22T23:28:29.482Z,9.85
2019-03-22T23:31:39.023Z,13.05
2019-03-22T23:34:58.443Z,12.20
2019-03-22T23:37:57.637Z,11.88
2019-03-22T23:41:05.526Z,11.60
2019-03-22T23:44:13.588Z,11.08
2019-03-22T23:47:21.947Z,9.13
2019-03-22T23:50:29.609Z,9.28
2019-03-22T23:53:37.240Z,10.25
2019-03-22T23:56:45.137Z,11.70
2019-03-22T23:59:53.331Z,10.88
